Terminal Aerodrome Forecast
Issued by NWS

Home | Current Version | Previous Version | Text Only | Print | Product List | Glossary On
Versions: 1 2 3 4 5 6 7 8 9 10 11 12
865
FTUS45 KPSR 211733
TAFIPL
TAF
KIPL 211733Z 2118/2218 34005KT P6SM FEW250
     FM220300 27004KT P6SM SKC=

USA.gov is the U.S. government's official web portal to all federal, state and local government web resources and services.